sensor_id;sensor_type;location;lat;lon;timestamp;temperature;humidity
12926;DHT22;6529;50.566;9.774;2023-04-03T00:01:10;3.40;99.90
12926;DHT22;6529;50.566;9.774;2023-04-03T00:03:36;3.40;99.90
12926;DHT22;6529;50.566;9.774;2023-04-03T00:06:02;3.40;99.90
12926;DHT22;6529;50.566;9.774;2023-04-03T00:08:28;3.40;99.90
12926;DHT22;6529;50.566;9.774;2023-04-03T00:10:56;3.40;99.90
12926;DHT22;6529;50.566;9.774;2023-04-03T00:13:22;3.40;99.90
12926;DHT22;6529;50.566;9.774;2023-04-03T00:15:48;3.30;99.90
12926;DHT22;6529;50.566;9.774;2023-04-03T00:18:13;3.30;99.90
12926;DHT22;6529;50.566;9.774;2023-04-03T00:20:39;3.30;99.90
12926;DHT22;6529;50.566;9.774;2023-04-03T00:23:05;3.30;99.90
12926;DHT22;6529;50.566;9.774;2023-04-03T00:25:31;3.20;99.90
12926;DHT22;6529;50.566;9.774;2023-04-03T00:27:56;3.10;99.90
12926;DHT22;6529;50.566;9.774;2023-04-03T00:30:22;3.10;99.90
12926;DHT22;6529;50.566;9.774;2023-04-03T00:32:49;3.10;99.90
12926;DHT22;6529;50.566;9.774;2023-04-03T00:35:15;3.10;99.90
12926;DHT22;6529;50.566;9.774;2023-04-03T00:37:42;3.10;99.90
12926;DHT22;6529;50.566;9.774;2023-04-03T00:40:09;3.10;99.90
12926;DHT22;6529;50.566;9.774;2023-04-03T00:42:36;3.00;99.90
12926;DHT22;6529;50.566;9.774;2023-04-03T00:47:29;2.80;99.90
12926;DHT22;6529;50.566;9.774;2023-04-03T00:49:56;2.70;99.90
12926;DHT22;6529;50.566;9.774;2023-04-03T00:52:26;2.60;99.90
12926;DHT22;6529;50.566;9.774;2023-04-03T00:54:56;2.50;99.90
12926;DHT22;6529;50.566;9.774;2023-04-03T00:57:23;2.50;99.90
12926;DHT22;6529;50.566;9.774;2023-04-03T00:59:53;2.50;99.90
12926;DHT22;6529;50.566;9.774;2023-04-03T01:02:20;2.50;99.90
12926;DHT22;6529;50.566;9.774;2023-04-03T01:04:46;2.50;99.90
12926;DHT22;6529;50.566;9.774;2023-04-03T01:07:16;2.30;99.90
12926;DHT22;6529;50.566;9.774;2023-04-03T01:09:43;2.20;99.90
12926;DHT22;6529;50.566;9.774;2023-04-03T01:12:23;2.20;99.90
12926;DHT22;6529;50.566;9.774;2023-04-03T01:14:51;2.20;99.90
12926;DHT22;6529;50.566;9.774;2023-04-03T01:17:37;2.20;99.90
12926;DHT22;6529;50.566;9.774;2023-04-03T01:25:31;2.00;99.90
12926;DHT22;6529;50.566;9.774;2023-04-03T01:27:57;2.00;99.90
12926;DHT22;6529;50.566;9.774;2023-04-03T01:30:27;1.90;99.90
12926;DHT22;6529;50.566;9.774;2023-04-03T01:32:55;2.00;99.90
12926;DHT22;6529;50.566;9.774;2023-04-03T01:35:21;2.00;99.90
12926;DHT22;6529;50.566;9.774;2023-04-03T01:37:47;2.00;99.90
12926;DHT22;6529;50.566;9.774;2023-04-03T01:40:12;1.90;99.90
12926;DHT22;6529;50.566;9.774;2023-04-03T01:42:38;1.90;99.90
12926;DHT22;6529;50.566;9.774;2023-04-03T01:45:04;1.90;99.90
12926;DHT22;6529;50.566;9.774;2023-04-03T01:47:30;2.00;99.90
12926;DHT22;6529;50.566;9.774;2023-04-03T01:49:55;1.90;99.90
12926;DHT22;6529;50.566;9.774;2023-04-03T01:52:21;2.00;99.90
12926;DHT22;6529;50.566;9.774;2023-04-03T01:54:46;1.90;99.90
12926;DHT22;6529;50.566;9.774;2023-04-03T01:57:12;1.80;99.90
12926;DHT22;6529;50.566;9.774;2023-04-03T01:59:40;1.80;99.90
12926;DHT22;6529;50.566;9.774;2023-04-03T02:02:06;1.70;99.90
12926;DHT22;6529;50.566;9.774;2023-04-03T02:04:31;1.70;99.90
12926;DHT22;6529;50.566;9.774;2023-04-03T02:06:57;1.70;99.90
12926;DHT22;6529;50.566;9.774;2023-04-03T02:09:23;1.50;99.90
12926;DHT22;6529;50.566;9.774;2023-04-03T02:11:48;1.40;99.90
12926;DHT22;6529;50.566;9.774;2023-04-03T02:14:14;1.40;99.90
12926;DHT22;6529;50.566;9.774;2023-04-03T02:16:39;1.40;99.90
12926;DHT22;6529;50.566;9.774;2023-04-03T02:19:06;1.40;99.90
12926;DHT22;6529;50.566;9.774;2023-04-03T02:21:31;1.30;99.90
12926;DHT22;6529;50.566;9.774;2023-04-03T02:23:57;1.30;99.90
12926;DHT22;6529;50.566;9.774;2023-04-03T02:26:23;1.30;99.90
12926;DHT22;6529;50.566;9.774;2023-04-03T02:28:48;1.20;99.90
12926;DHT22;6529;50.566;9.774;2023-04-03T02:31:14;1.20;99.90
12926;DHT22;6529;50.566;9.774;2023-04-03T02:33:40;1.10;99.90
12926;DHT22;6529;50.566;9.774;2023-04-03T02:36:07;1.20;99.90
12926;DHT22;6529;50.566;9.774;2023-04-03T02:38:32;1.30;99.90
12926;DHT22;6529;50.566;9.774;2023-04-03T02:41:02;1.20;99.90
12926;DHT22;6529;50.566;9.774;2023-04-03T02:43:28;1.20;99.90
12926;DHT22;6529;50.566;9.774;2023-04-03T02:45:54;1.30;99.90
12926;DHT22;6529;50.566;9.774;2023-04-03T02:48:20;1.30;99.90
12926;DHT22;6529;50.566;9.774;2023-04-03T02:50:46;1.30;99.90
12926;DHT22;6529;50.566;9.774;2023-04-03T02:53:11;1.30;99.90
12926;DHT22;6529;50.566;9.774;2023-04-03T02:55:37;1.10;99.90
12926;DHT22;6529;50.566;9.774;2023-04-03T02:58:05;1.10;99.90
12926;DHT22;6529;50.566;9.774;2023-04-03T03:00:31;1.10;99.90
12926;DHT22;6529;50.566;9.774;2023-04-03T03:02:57;1.00;99.90
12926;DHT22;6529;50.566;9.774;2023-04-03T03:05:22;1.00;99.90
12926;DHT22;6529;50.566;9.774;2023-04-03T03:07:48;0.90;99.90
12926;DHT22;6529;50.566;9.774;2023-04-03T03:10:13;1.00;99.90
12926;DHT22;6529;50.566;9.774;2023-04-03T03:12:40;1.10;99.90
12926;DHT22;6529;50.566;9.774;2023-04-03T03:15:06;0.90;99.90
12926;DHT22;6529;50.566;9.774;2023-04-03T03:17:32;0.90;99.90
12926;DHT22;6529;50.566;9.774;2023-04-03T03:19:57;0.90;99.90
12926;DHT22;6529;50.566;9.774;2023-04-03T03:22:23;0.90;99.90
12926;DHT22;6529;50.566;9.774;2023-04-03T03:24:49;1.00;99.90
12926;DHT22;6529;50.566;9.774;2023-04-03T03:27:14;0.90;99.90
12926;DHT22;6529;50.566;9.774;2023-04-03T03:29:41;0.80;99.90
12926;DHT22;6529;50.566;9.774;2023-04-03T03:32:07;0.80;99.90
12926;DHT22;6529;50.566;9.774;2023-04-03T03:34:32;0.70;99.90
12926;DHT22;6529;50.566;9.774;2023-04-03T03:36:58;0.80;99.90
12926;DHT22;6529;50.566;9.774;2023-04-03T03:39:23;0.70;99.90
12926;DHT22;6529;50.566;9.774;2023-04-03T03:41:49;0.70;99.90
12926;DHT22;6529;50.566;9.774;2023-04-03T03:44:15;0.60;99.90
12926;DHT22;6529;50.566;9.774;2023-04-03T03:46:41;0.60;99.90
12926;DHT22;6529;50.566;9.774;2023-04-03T03:49:06;0.50;99.90
12926;DHT22;6529;50.566;9.774;2023-04-03T03:51:32;0.50;99.90
12926;DHT22;6529;50.566;9.774;2023-04-03T03:53:58;0.50;99.90
12926;DHT22;6529;50.566;9.774;2023-04-03T03:56:23;0.50;99.90
12926;DHT22;6529;50.566;9.774;2023-04-03T03:58:49;0.60;99.90
12926;DHT22;6529;50.566;9.774;2023-04-03T04:01:15;0.60;99.90
12926;DHT22;6529;50.566;9.774;2023-04-03T04:03:42;0.60;99.90
12926;DHT22;6529;50.566;9.774;2023-04-03T04:06:07;0.60;99.90
12926;DHT22;6529;50.566;9.774;2023-04-03T04:08:33;0.60;99.90
12926;DHT22;6529;50.566;9.774;2023-04-03T04:10:59;0.70;99.90
12926;DHT22;6529;50.566;9.774;2023-04-03T04:13:24;0.60;99.90
12926;DHT22;6529;50.566;9.774;2023-04-03T04:15:50;0.50;99.90
12926;DHT22;6529;50.566;9.774;2023-04-03T04:18:16;0.50;99.90
12926;DHT22;6529;50.566;9.774;2023-04-03T04:20:41;0.50;99.90
12926;DHT22;6529;50.566;9.774;2023-04-03T04:23:07;0.60;99.90
12926;DHT22;6529;50.566;9.774;2023-04-03T04:25:32;0.50;99.90
12926;DHT22;6529;50.566;9.774;2023-04-03T04:27:58;0.60;99.90
12926;DHT22;6529;50.566;9.774;2023-04-03T04:30:23;0.50;99.90
12926;DHT22;6529;50.566;9.774;2023-04-03T04:32:49;0.40;99.90
12926;DHT22;6529;50.566;9.774;2023-04-03T04:35:15;0.40;99.90
12926;DHT22;6529;50.566;9.774;2023-04-03T04:37:40;0.40;99.90
12926;DHT22;6529;50.566;9.774;2023-04-03T04:40:07;0.40;99.90
12926;DHT22;6529;50.566;9.774;2023-04-03T04:42:32;0.40;99.90
12926;DHT22;6529;50.566;9.774;2023-04-03T04:44:58;0.40;99.90
12926;DHT22;6529;50.566;9.774;2023-04-03T04:47:23;0.50;99.90
12926;DHT22;6529;50.566;9.774;2023-04-03T04:49:49;0.40;99.90
12926;DHT22;6529;50.566;9.774;2023-04-03T04:52:15;0.50;99.90
12926;DHT22;6529;50.566;9.774;2023-04-03T04:54:41;0.50;99.90
12926;DHT22;6529;50.566;9.774;2023-04-03T04:57:06;0.50;99.90
12926;DHT22;6529;50.566;9.774;2023-04-03T04:59:32;0.60;99.90
12926;DHT22;6529;50.566;9.774;2023-04-03T05:01:58;0.70;99.90
12926;DHT22;6529;50.566;9.774;2023-04-03T05:04:24;0.50;99.90
12926;DHT22;6529;50.566;9.774;2023-04-03T05:06:49;0.60;99.90
12926;DHT22;6529;50.566;9.774;2023-04-03T05:09:15;0.60;99.90
12926;DHT22;6529;50.566;9.774;2023-04-03T05:11:40;0.60;99.90
12926;DHT22;6529;50.566;9.774;2023-04-03T05:14:06;0.60;99.90
12926;DHT22;6529;50.566;9.774;2023-04-03T05:16:32;0.60;99.90
12926;DHT22;6529;50.566;9.774;2023-04-03T05:18:58;0.60;99.90
12926;DHT22;6529;50.566;9.774;2023-04-03T05:21:24;0.60;99.90
12926;DHT22;6529;50.566;9.774;2023-04-03T05:23:51;0.70;99.90
12926;DHT22;6529;50.566;9.774;2023-04-03T05:26:17;0.70;99.90
12926;DHT22;6529;50.566;9.774;2023-04-03T05:28:43;0.70;99.90
12926;DHT22;6529;50.566;9.774;2023-04-03T05:31:08;0.80;99.90
12926;DHT22;6529;50.566;9.774;2023-04-03T05:33:34;0.70;99.90
12926;DHT22;6529;50.566;9.774;2023-04-03T05:36:06;0.70;99.90
12926;DHT22;6529;50.566;9.774;2023-04-03T05:38:32;0.80;99.90
12926;DHT22;6529;50.566;9.774;2023-04-03T05:40:58;0.80;99.90
12926;DHT22;6529;50.566;9.774;2023-04-03T05:43:24;0.80;99.90
12926;DHT22;6529;50.566;9.774;2023-04-03T05:45:51;0.80;99.90
12926;DHT22;6529;50.566;9.774;2023-04-03T05:48:17;0.90;99.90
12926;DHT22;6529;50.566;9.774;2023-04-03T05:50:42;0.90;99.90
12926;DHT22;6529;50.566;9.774;2023-04-03T05:53:19;0.90;99.90
12926;DHT22;6529;50.566;9.774;2023-04-03T05:55:46;0.90;99.90
12926;DHT22;6529;50.566;9.774;2023-04-03T05:58:12;1.00;99.90
12926;DHT22;6529;50.566;9.774;2023-04-03T06:00:38;1.00;99.90
12926;DHT22;6529;50.566;9.774;2023-04-03T06:03:04;1.10;99.90
12926;DHT22;6529;50.566;9.774;2023-04-03T06:05:30;1.10;99.90
12926;DHT22;6529;50.566;9.774;2023-04-03T06:07:55;1.20;99.90
12926;DHT22;6529;50.566;9.774;2023-04-03T06:10:22;1.20;99.90
12926;DHT22;6529;50.566;9.774;2023-04-03T06:12:48;1.20;99.90
12926;DHT22;6529;50.566;9.774;2023-04-03T06:15:14;1.30;99.90
12926;DHT22;6529;50.566;9.774;2023-04-03T06:17:41;1.30;99.90
12926;DHT22;6529;50.566;9.774;2023-04-03T06:20:06;1.40;99.90
12926;DHT22;6529;50.566;9.774;2023-04-03T06:22:33;1.50;99.90
12926;DHT22;6529;50.566;9.774;2023-04-03T06:24:58;1.50;99.90
12926;DHT22;6529;50.566;9.774;2023-04-03T06:27:24;1.50;99.90
12926;DHT22;6529;50.566;9.774;2023-04-03T06:29:50;1.50;99.90
12926;DHT22;6529;50.566;9.774;2023-04-03T06:32:16;1.70;99.90
12926;DHT22;6529;50.566;9.774;2023-04-03T06:34:42;1.70;99.90
12926;DHT22;6529;50.566;9.774;2023-04-03T06:37:20;1.60;99.90
12926;DHT22;6529;50.566;9.774;2023-04-03T06:39:46;1.60;99.90
12926;DHT22;6529;50.566;9.774;2023-04-03T06:42:12;1.60;99.90
12926;DHT22;6529;50.566;9.774;2023-04-03T06:44:38;1.70;99.90
12926;DHT22;6529;50.566;9.774;2023-04-03T06:47:04;1.70;99.90
12926;DHT22;6529;50.566;9.774;2023-04-03T06:49:31;1.60;99.90
12926;DHT22;6529;50.566;9.774;2023-04-03T06:51:57;1.60;99.90
12926;DHT22;6529;50.566;9.774;2023-04-03T06:54:22;1.60;99.90
12926;DHT22;6529;50.566;9.774;2023-04-03T06:56:48;1.80;99.90
12926;DHT22;6529;50.566;9.774;2023-04-03T06:59:14;1.80;99.90
12926;DHT22;6529;50.566;9.774;2023-04-03T07:01:40;1.90;99.90
12926;DHT22;6529;50.566;9.774;2023-04-03T07:04:06;2.00;99.90
12926;DHT22;6529;50.566;9.774;2023-04-03T07:06:31;2.00;99.90
12926;DHT22;6529;50.566;9.774;2023-04-03T07:08:59;2.50;99.90
12926;DHT22;6529;50.566;9.774;2023-04-03T07:11:25;3.00;99.90
12926;DHT22;6529;50.566;9.774;2023-04-03T07:13:51;3.20;99.90
12926;DHT22;6529;50.566;9.774;2023-04-03T07:16:17;3.20;99.90
12926;DHT22;6529;50.566;9.774;2023-04-03T07:18:43;3.40;99.90
12926;DHT22;6529;50.566;9.774;2023-04-03T07:21:08;3.30;99.90
12926;DHT22;6529;50.566;9.774;2023-04-03T07:23:34;3.00;99.90
12926;DHT22;6529;50.566;9.774;2023-04-03T07:26:00;2.70;99.90
12926;DHT22;6529;50.566;9.774;2023-04-03T07:28:25;2.50;99.90
12926;DHT22;6529;50.566;9.774;2023-04-03T07:31:02;2.50;99.90
12926;DHT22;6529;50.566;9.774;2023-04-03T07:33:28;2.40;99.90
12926;DHT22;6529;50.566;9.774;2023-04-03T07:35:53;2.30;99.90
12926;DHT22;6529;50.566;9.774;2023-04-03T07:38:19;2.30;99.90
12926;DHT22;6529;50.566;9.774;2023-04-03T07:40:46;2.30;99.90
12926;DHT22;6529;50.566;9.774;2023-04-03T07:43:12;2.40;99.90
12926;DHT22;6529;50.566;9.774;2023-04-03T07:45:38;2.60;99.90
12926;DHT22;6529;50.566;9.774;2023-04-03T07:48:04;2.70;99.90
12926;DHT22;6529;50.566;9.774;2023-04-03T07:50:29;2.70;99.90
12926;DHT22;6529;50.566;9.774;2023-04-03T07:52:57;2.60;99.90
12926;DHT22;6529;50.566;9.774;2023-04-03T07:55:23;2.60;99.90
12926;DHT22;6529;50.566;9.774;2023-04-03T07:57:49;2.60;99.90
12926;DHT22;6529;50.566;9.774;2023-04-03T08:00:15;2.70;99.90
12926;DHT22;6529;50.566;9.774;2023-04-03T08:02:43;2.90;99.90
12926;DHT22;6529;50.566;9.774;2023-04-03T08:05:10;2.80;99.90
12926;DHT22;6529;50.566;9.774;2023-04-03T08:07:37;2.60;99.90
12926;DHT22;6529;50.566;9.774;2023-04-03T08:10:03;2.50;99.90
12926;DHT22;6529;50.566;9.774;2023-04-03T08:12:29;2.50;99.90
12926;DHT22;6529;50.566;9.774;2023-04-03T08:14:55;2.60;99.90
12926;DHT22;6529;50.566;9.774;2023-04-03T08:17:21;2.70;99.90
12926;DHT22;6529;50.566;9.774;2023-04-03T08:19:46;3.10;99.90
12926;DHT22;6529;50.566;9.774;2023-04-03T08:22:12;3.00;99.90
12926;DHT22;6529;50.566;9.774;2023-04-03T08:24:38;3.10;99.90
12926;DHT22;6529;50.566;9.774;2023-04-03T08:27:03;3.20;99.90
12926;DHT22;6529;50.566;9.774;2023-04-03T08:29:29;3.30;99.90
12926;DHT22;6529;50.566;9.774;2023-04-03T08:31:55;3.30;99.90
12926;DHT22;6529;50.566;9.774;2023-04-03T08:34:21;3.50;99.90
12926;DHT22;6529;50.566;9.774;2023-04-03T08:36:47;3.90;99.90
12926;DHT22;6529;50.566;9.774;2023-04-03T08:39:12;4.20;99.90
12926;DHT22;6529;50.566;9.774;2023-04-03T08:41:40;4.00;99.90
12926;DHT22;6529;50.566;9.774;2023-04-03T08:47:27;3.40;99.90
12926;DHT22;6529;50.566;9.774;2023-04-03T08:49:58;3.20;99.90
12926;DHT22;6529;50.566;9.774;2023-04-03T08:52:38;3.10;99.90
12926;DHT22;6529;50.566;9.774;2023-04-03T08:55:07;3.10;99.90
12926;DHT22;6529;50.566;9.774;2023-04-03T08:57:44;3.20;99.90
12926;DHT22;6529;50.566;9.774;2023-04-03T09:02:53;3.70;99.90
12926;DHT22;6529;50.566;9.774;2023-04-03T09:05:35;3.80;97.70
12926;DHT22;6529;50.566;9.774;2023-04-03T09:08:12;4.10;99.90
12926;DHT22;6529;50.566;9.774;2023-04-03T09:10:40;4.70;99.90
12926;DHT22;6529;50.566;9.774;2023-04-03T09:18:51;5.20;93.90
12926;DHT22;6529;50.566;9.774;2023-04-03T09:21:44;5.20;96.00
12926;DHT22;6529;50.566;9.774;2023-04-03T09:24:12;4.90;94.90
12926;DHT22;6529;50.566;9.774;2023-04-03T09:26:43;4.80;97.90
12926;DHT22;6529;50.566;9.774;2023-04-03T09:29:17;4.40;93.50
12926;DHT22;6529;50.566;9.774;2023-04-03T09:31:44;4.20;99.00
12926;DHT22;6529;50.566;9.774;2023-04-03T09:36:49;4.40;90.30
12926;DHT22;6529;50.566;9.774;2023-04-03T09:39:22;4.10;92.20
12926;DHT22;6529;50.566;9.774;2023-04-03T09:42:19;4.10;90.20
12926;DHT22;6529;50.566;9.774;2023-04-03T09:44:56;4.50;87.70
12926;DHT22;6529;50.566;9.774;2023-04-03T09:47:32;5.10;80.60
12926;DHT22;6529;50.566;9.774;2023-04-03T09:52:44;5.70;75.70
12926;DHT22;6529;50.566;9.774;2023-04-03T09:57:40;6.10;66.30
12926;DHT22;6529;50.566;9.774;2023-04-03T10:00:18;6.30;57.40
12926;DHT22;6529;50.566;9.774;2023-04-03T10:02:52;6.30;57.50
12926;DHT22;6529;50.566;9.774;2023-04-03T10:05:32;6.50;66.10
12926;DHT22;6529;50.566;9.774;2023-04-03T10:10:41;6.50;59.30
12926;DHT22;6529;50.566;9.774;2023-04-03T10:13:18;6.70;56.20
12926;DHT22;6529;50.566;9.774;2023-04-03T10:16:10;6.80;48.00
12926;DHT22;6529;50.566;9.774;2023-04-03T10:18:44;7.10;55.90
12926;DHT22;6529;50.566;9.774;2023-04-03T10:21:43;7.00;58.90
12926;DHT22;6529;50.566;9.774;2023-04-03T10:24:13;7.00;55.10
12926;DHT22;6529;50.566;9.774;2023-04-03T10:29:33;6.70;53.80
12926;DHT22;6529;50.566;9.774;2023-04-03T10:38:11;5.60;66.70
12926;DHT22;6529;50.566;9.774;2023-04-03T10:40:57;6.60;59.90
12926;DHT22;6529;50.566;9.774;2023-04-03T10:46:26;7.70;62.10
12926;DHT22;6529;50.566;9.774;2023-04-03T10:49:01;8.50;78.90
12926;DHT22;6529;50.566;9.774;2023-04-03T10:52:00;8.20;39.10
12926;DHT22;6529;50.566;9.774;2023-04-03T10:57:23;8.10;70.80
12926;DHT22;6529;50.566;9.774;2023-04-03T11:00:06;7.50;47.10
12926;DHT22;6529;50.566;9.774;2023-04-03T11:05:41;7.00;50.00
12926;DHT22;6529;50.566;9.774;2023-04-03T11:08:16;6.60;56.40
12926;DHT22;6529;50.566;9.774;2023-04-03T11:10:46;7.00;51.60
12926;DHT22;6529;50.566;9.774;2023-04-03T11:13:21;7.00;53.10
12926;DHT22;6529;50.566;9.774;2023-04-03T11:15:49;7.40;47.10
12926;DHT22;6529;50.566;9.774;2023-04-03T11:18:27;7.70;41.90
12926;DHT22;6529;50.566;9.774;2023-04-03T11:21:20;7.80;46.50
12926;DHT22;6529;50.566;9.774;2023-04-03T11:23:47;7.70;39.30
12926;DHT22;6529;50.566;9.774;2023-04-03T11:26:18;7.40;34.40
12926;DHT22;6529;50.566;9.774;2023-04-03T11:28:46;7.70;52.50
12926;DHT22;6529;50.566;9.774;2023-04-03T11:34:34;8.30;33.50
12926;DHT22;6529;50.566;9.774;2023-04-03T11:37:11;7.90;30.10
12926;DHT22;6529;50.566;9.774;2023-04-03T11:39:38;7.90;29.60
12926;DHT22;6529;50.566;9.774;2023-04-03T11:47:55;8.00;28.20
12926;DHT22;6529;50.566;9.774;2023-04-03T11:53:45;8.60;34.70
12926;DHT22;6529;50.566;9.774;2023-04-03T11:58:18;8.50;30.20
12926;DHT22;6529;50.566;9.774;2023-04-03T12:08:46;8.40;36.70
12926;DHT22;6529;50.566;9.774;2023-04-03T12:18:58;8.90;21.10
12926;DHT22;6529;50.566;9.774;2023-04-03T12:24:23;8.70;20.80
12926;DHT22;6529;50.566;9.774;2023-04-03T12:48:27;9.40;23.90
12926;DHT22;6529;50.566;9.774;2023-04-03T12:50:55;9.40;18.60
12926;DHT22;6529;50.566;9.774;2023-04-03T12:53:26;9.50;22.50
12926;DHT22;6529;50.566;9.774;2023-04-03T12:55:57;8.80;19.00
12926;DHT22;6529;50.566;9.774;2023-04-03T12:58:27;8.90;21.00
12926;DHT22;6529;50.566;9.774;2023-04-03T13:03:38;9.50;22.80
12926;DHT22;6529;50.566;9.774;2023-04-03T13:06:05;9.80;19.30
12926;DHT22;6529;50.566;9.774;2023-04-03T13:08:31;10.20;19.30
12926;DHT22;6529;50.566;9.774;2023-04-03T13:11:10;10.20;17.50
12926;DHT22;6529;50.566;9.774;2023-04-03T13:13:37;10.10;12.10
12926;DHT22;6529;50.566;9.774;2023-04-03T13:16:10;10.20;13.60
12926;DHT22;6529;50.566;9.774;2023-04-03T13:18:37;10.60;17.60
12926;DHT22;6529;50.566;9.774;2023-04-03T13:21:07;10.80;12.40
12926;DHT22;6529;50.566;9.774;2023-04-03T13:23:38;10.60;9.70
12926;DHT22;6529;50.566;9.774;2023-04-03T13:26:06;10.40;6.10
12926;DHT22;6529;50.566;9.774;2023-04-03T13:28:33;10.00;4.50
12926;DHT22;6529;50.566;9.774;2023-04-03T13:31:14;9.80;8.10
12926;DHT22;6529;50.566;9.774;2023-04-03T13:41:49;10.50;21.00
12926;DHT22;6529;50.566;9.774;2023-04-03T13:46:58;9.80;9.20
12926;DHT22;6529;50.566;9.774;2023-04-03T13:52:43;10.20;17.20
12926;DHT22;6529;50.566;9.774;2023-04-03T13:55:36;10.40;14.70
12926;DHT22;6529;50.566;9.774;2023-04-03T14:00:45;10.30;11.20
12926;DHT22;6529;50.566;9.774;2023-04-03T14:03:25;10.40;10.50
12926;DHT22;6529;50.566;9.774;2023-04-03T14:05:52;9.60;9.20
12926;DHT22;6529;50.566;9.774;2023-04-03T14:08:18;9.40;12.20
12926;DHT22;6529;50.566;9.774;2023-04-03T14:10:45;9.50;11.70
12926;DHT22;6529;50.566;9.774;2023-04-03T14:13:17;9.80;9.10
12926;DHT22;6529;50.566;9.774;2023-04-03T14:15:44;10.30;6.10
12926;DHT22;6529;50.566;9.774;2023-04-03T14:18:13;9.90;2.50
12926;DHT22;6529;50.566;9.774;2023-04-03T14:20:39;9.60;1.60
12926;DHT22;6529;50.566;9.774;2023-04-03T14:23:05;9.50;1.00
12926;DHT22;6529;50.566;9.774;2023-04-03T14:25:31;9.90;1.90
12926;DHT22;6529;50.566;9.774;2023-04-03T14:27:58;10.60;3.00
12926;DHT22;6529;50.566;9.774;2023-04-03T14:30:33;11.40;1.00
12926;DHT22;6529;50.566;9.774;2023-04-03T14:32:59;11.90;1.00
12926;DHT22;6529;50.566;9.774;2023-04-03T14:35:25;11.70;1.00
12926;DHT22;6529;50.566;9.774;2023-04-03T14:37:52;10.30;1.00
12926;DHT22;6529;50.566;9.774;2023-04-03T14:40:25;11.00;4.40
12926;DHT22;6529;50.566;9.774;2023-04-03T14:42:52;10.80;1.00
12926;DHT22;6529;50.566;9.774;2023-04-03T14:45:21;10.50;1.80
12926;DHT22;6529;50.566;9.774;2023-04-03T14:47:54;11.20;1.30
12926;DHT22;6529;50.566;9.774;2023-04-03T14:50:23;10.90;1.00
12926;DHT22;6529;50.566;9.774;2023-04-03T14:52:51;10.50;1.00
12926;DHT22;6529;50.566;9.774;2023-04-03T14:55:20;10.00;1.90
12926;DHT22;6529;50.566;9.774;2023-04-03T14:57:46;9.30;5.00
12926;DHT22;6529;50.566;9.774;2023-04-03T15:00:14;8.70;14.30
12926;DHT22;6529;50.566;9.774;2023-04-03T15:02:40;8.40;12.30
12926;DHT22;6529;50.566;9.774;2023-04-03T15:05:08;8.60;14.80
12926;DHT22;6529;50.566;9.774;2023-04-03T15:07:37;8.60;15.40
12926;DHT22;6529;50.566;9.774;2023-04-03T15:12:43;7.90;14.50
12926;DHT22;6529;50.566;9.774;2023-04-03T15:15:09;7.80;9.30
12926;DHT22;6529;50.566;9.774;2023-04-03T15:17:36;8.30;14.00
12926;DHT22;6529;50.566;9.774;2023-04-03T15:20:03;8.80;7.40
12926;DHT22;6529;50.566;9.774;2023-04-03T15:22:29;9.40;9.10
12926;DHT22;6529;50.566;9.774;2023-04-03T15:24:54;9.40;5.70
12926;DHT22;6529;50.566;9.774;2023-04-03T15:27:20;9.40;5.70
12926;DHT22;6529;50.566;9.774;2023-04-03T15:29:46;9.60;8.50
12926;DHT22;6529;50.566;9.774;2023-04-03T15:32:12;9.70;6.70
12926;DHT22;6529;50.566;9.774;2023-04-03T15:34:38;9.40;6.00
12926;DHT22;6529;50.566;9.774;2023-04-03T15:37:04;9.30;6.00
12926;DHT22;6529;50.566;9.774;2023-04-03T15:39:30;8.70;10.70
12926;DHT22;6529;50.566;9.774;2023-04-03T15:41:56;7.80;11.10
12926;DHT22;6529;50.566;9.774;2023-04-03T15:44:25;7.70;12.50
12926;DHT22;6529;50.566;9.774;2023-04-03T15:46:50;8.20;16.60
12926;DHT22;6529;50.566;9.774;2023-04-03T15:49:17;8.60;14.30
12926;DHT22;6529;50.566;9.774;2023-04-03T15:51:43;8.80;9.90
12926;DHT22;6529;50.566;9.774;2023-04-03T15:54:09;8.60;8.90
12926;DHT22;6529;50.566;9.774;2023-04-03T15:56:34;7.70;10.90
12926;DHT22;6529;50.566;9.774;2023-04-03T15:59:00;7.10;11.90
12926;DHT22;6529;50.566;9.774;2023-04-03T16:01:26;7.00;18.00
12926;DHT22;6529;50.566;9.774;2023-04-03T16:03:51;7.20;15.00
12926;DHT22;6529;50.566;9.774;2023-04-03T16:06:18;7.50;16.10
12926;DHT22;6529;50.566;9.774;2023-04-03T16:08:44;8.20;13.30
12926;DHT22;6529;50.566;9.774;2023-04-03T16:11:11;8.40;8.80
12926;DHT22;6529;50.566;9.774;2023-04-03T16:13:37;8.60;10.00
12926;DHT22;6529;50.566;9.774;2023-04-03T16:16:04;8.90;9.50
12926;DHT22;6529;50.566;9.774;2023-04-03T16:18:30;9.00;12.50
12926;DHT22;6529;50.566;9.774;2023-04-03T16:20:56;8.80;9.60
12926;DHT22;6529;50.566;9.774;2023-04-03T16:23:23;9.30;7.30
12926;DHT22;6529;50.566;9.774;2023-04-03T16:25:48;8.90;7.30
12926;DHT22;6529;50.566;9.774;2023-04-03T16:28:15;8.80;7.40
12926;DHT22;6529;50.566;9.774;2023-04-03T16:30:45;8.50;6.10
12926;DHT22;6529;50.566;9.774;2023-04-03T16:33:12;8.30;7.10
12926;DHT22;6529;50.566;9.774;2023-04-03T16:35:38;8.60;7.70
12926;DHT22;6529;50.566;9.774;2023-04-03T16:38:04;8.40;9.30
12926;DHT22;6529;50.566;9.774;2023-04-03T16:40:30;8.30;6.50
12926;DHT22;6529;50.566;9.774;2023-04-03T16:42:56;8.60;9.20
12926;DHT22;6529;50.566;9.774;2023-04-03T16:45:22;8.70;6.60
12926;DHT22;6529;50.566;9.774;2023-04-03T16:47:47;8.30;7.40
12926;DHT22;6529;50.566;9.774;2023-04-03T16:50:13;8.20;9.10
12926;DHT22;6529;50.566;9.774;2023-04-03T16:52:39;7.80;5.60
12926;DHT22;6529;50.566;9.774;2023-04-03T16:55:05;7.40;6.90
12926;DHT22;6529;50.566;9.774;2023-04-03T16:57:31;7.30;11.00
12926;DHT22;6529;50.566;9.774;2023-04-03T16:59:56;7.20;11.80
12926;DHT22;6529;50.566;9.774;2023-04-03T17:02:23;7.50;15.60
12926;DHT22;6529;50.566;9.774;2023-04-03T17:04:53;7.90;14.50
12926;DHT22;6529;50.566;9.774;2023-04-03T17:07:19;7.90;8.80
12926;DHT22;6529;50.566;9.774;2023-04-03T17:09:45;8.00;11.60
12926;DHT22;6529;50.566;9.774;2023-04-03T17:12:11;8.20;11.40
12926;DHT22;6529;50.566;9.774;2023-04-03T17:14:36;8.00;11.20
12926;DHT22;6529;50.566;9.774;2023-04-03T17:17:02;7.80;12.00
12926;DHT22;6529;50.566;9.774;2023-04-03T17:19:29;7.60;11.50
12926;DHT22;6529;50.566;9.774;2023-04-03T17:21:55;7.40;14.20
12926;DHT22;6529;50.566;9.774;2023-04-03T17:24:21;6.90;14.80
12926;DHT22;6529;50.566;9.774;2023-04-03T17:26:46;6.50;16.60
12926;DHT22;6529;50.566;9.774;2023-04-03T17:29:12;6.00;20.20
12926;DHT22;6529;50.566;9.774;2023-04-03T17:31:37;5.90;22.80
12926;DHT22;6529;50.566;9.774;2023-04-03T17:34:03;5.90;25.30
12926;DHT22;6529;50.566;9.774;2023-04-03T17:36:30;5.90;24.70
12926;DHT22;6529;50.566;9.774;2023-04-03T17:38:56;5.60;25.10
12926;DHT22;6529;50.566;9.774;2023-04-03T17:41:22;5.40;28.40
12926;DHT22;6529;50.566;9.774;2023-04-03T17:43:48;5.20;31.40
12926;DHT22;6529;50.566;9.774;2023-04-03T17:46:14;5.10;40.10
12926;DHT22;6529;50.566;9.774;2023-04-03T17:48:42;5.10;37.50
12926;DHT22;6529;50.566;9.774;2023-04-03T17:51:11;4.90;46.20
12926;DHT22;6529;50.566;9.774;2023-04-03T17:53:37;4.80;48.30
12926;DHT22;6529;50.566;9.774;2023-04-03T17:56:11;4.60;50.90
12926;DHT22;6529;50.566;9.774;2023-04-03T17:58:37;4.70;50.90
12926;DHT22;6529;50.566;9.774;2023-04-03T18:01:17;4.80;47.80
12926;DHT22;6529;50.566;9.774;2023-04-03T18:03:43;4.80;49.00
12926;DHT22;6529;50.566;9.774;2023-04-03T18:06:14;4.60;49.80
12926;DHT22;6529;50.566;9.774;2023-04-03T18:08:44;4.50;46.60
12926;DHT22;6529;50.566;9.774;2023-04-03T18:11:11;4.50;53.20